TAF KTWF
KTWF 072336Z 0800/0824 29005KT P6SM BKN040 FM080200 19008KT P6SM VCFG SKC FM082000 27012KT P6SM BKN070=
METAR KTWF
WC KTWF
WS KTWF
WV KTWF